Time,TemperatureF,DewpointF,PressureIn,WindDirection,WindDirectionDegrees,WindSpeedMPH,WindSpeedGustMPH,Humidity,HourlyPrecipIn,Conditions,Clouds,dailyrainin,SolarRadiationWatts/m^2,SoftwareType,DateUTC
2013-08-24 00:03:00,81.0,71.0,-100.00,SE,124,3.0,9.0,72,0.00,,,0.00,0.000000,,2013-08-24 05:03:00,
2013-08-24 00:13:00,81.0,71.0,-100.00,SE,124,3.0,9.0,72,0.00,,,0.00,0.000000,,2013-08-24 05:13:00,
2013-08-24 00:23:00,81.0,71.0,-100.00,SE,124,3.0,9.0,72,0.00,,,0.00,0.000000,,2013-08-24 05:23:00,
2013-08-24 00:32:00,78.0,72.0,-100.00,SSE,161,3.0,6.0,81,0.00,,,0.00,0.000000,,2013-08-24 05:32:00,
2013-08-24 00:53:00,78.0,72.0,-100.00,SSE,161,3.0,6.0,81,0.00,,,0.00,0.000000,,2013-08-24 05:53:00,
2013-08-24 01:02:00,78.0,72.0,-100.00,SSE,161,3.0,6.0,81,0.00,,,0.00,0.000000,,2013-08-24 06:02:00,
2013-08-24 01:12:00,78.0,72.0,-100.00,SSE,161,3.0,6.0,81,0.00,,,0.00,0.000000,,2013-08-24 06:12:00,
2013-08-24 01:22:00,78.0,72.0,-100.00,SSE,161,3.0,6.0,81,0.00,,,0.00,0.000000,,2013-08-24 06:22:00,
2013-08-24 01:32:00,77.0,70.0,-100.00,SSE,154,3.0,7.0,80,0.00,,,0.00,0.000000,,2013-08-24 06:32:00,
2013-08-24 01:52:00,77.0,70.0,-100.00,SSE,154,3.0,7.0,80,0.00,,,0.00,0.000000,,2013-08-24 06:52:00,
2013-08-24 02:02:00,77.0,70.0,-100.00,SSE,154,3.0,7.0,80,0.00,,,0.00,0.000000,,2013-08-24 07:02:00,
2013-08-24 02:12:00,77.0,70.0,-100.00,SSE,154,3.0,7.0,80,0.00,,,0.00,0.000000,,2013-08-24 07:12:00,
2013-08-24 02:22:00,77.0,70.0,-100.00,SSE,154,3.0,7.0,80,0.00,,,0.00,0.000000,,2013-08-24 07:22:00,
2013-08-24 02:32:00,75.0,70.0,-100.00,ENE,76,0.0,3.0,85,0.00,,,0.00,0.000000,,2013-08-24 07:32:00,
2013-08-24 02:53:00,75.0,70.0,-100.00,ENE,76,0.0,3.0,85,0.00,,,0.00,0.000000,,2013-08-24 07:53:00,
2013-08-24 03:02:00,75.0,70.0,-100.00,ENE,76,0.0,3.0,85,0.00,,,0.00,0.000000,,2013-08-24 08:02:00,
2013-08-24 03:12:00,75.0,70.0,-100.00,ENE,76,0.0,3.0,85,0.00,,,0.00,0.000000,,2013-08-24 08:12:00,
2013-08-24 03:22:00,75.0,70.0,-100.00,ENE,76,0.0,3.0,85,0.00,,,0.00,0.000000,,2013-08-24 08:22:00,
2013-08-24 03:32:00,73.0,70.0,-100.00,NE,40,0.0,1.0,89,0.00,,,0.00,0.000000,,2013-08-24 08:32:00,
2013-08-24 04:11:00,73.0,70.0,-100.00,NE,40,0.0,1.0,89,0.00,,,0.00,0.000000,,2013-08-24 09:11:00,
2013-08-24 04:22:00,73.0,70.0,-100.00,NE,40,0.0,1.0,89,0.00,,,0.00,0.000000,,2013-08-24 09:22:00,
2013-08-24 04:32:00,72.0,69.0,-100.00,NNW,332,0.0,0.0,90,0.00,,,0.00,0.000000,,2013-08-24 09:32:00,
2013-08-24 04:53:00,72.0,69.0,-100.00,NNW,332,0.0,0.0,90,0.00,,,0.00,0.000000,,2013-08-24 09:53:00,
2013-08-24 05:03:00,72.0,69.0,-100.00,NNW,332,0.0,0.0,90,0.00,,,0.00,0.000000,,2013-08-24 10:03:00,
2013-08-24 05:13:00,72.0,69.0,-100.00,NNW,332,0.0,0.0,90,0.00,,,0.00,0.000000,,2013-08-24 10:13:00,
2013-08-24 05:23:00,72.0,69.0,-100.00,NNW,332,0.0,0.0,90,0.00,,,0.00,0.000000,,2013-08-24 10:23:00,
2013-08-24 05:32:00,72.0,69.0,-100.00,NE,44,0.0,2.0,90,0.00,,,0.00,0.000000,,2013-08-24 10:32:00,
2013-08-24 05:53:00,72.0,69.0,-100.00,NE,44,0.0,2.0,90,0.00,,,0.00,0.000000,,2013-08-24 10:53:00,
2013-08-24 06:02:00,72.0,69.0,-100.00,NE,44,0.0,2.0,90,0.00,,,0.00,0.000000,,2013-08-24 11:02:00,
2013-08-24 06:12:00,72.0,69.0,-100.00,NE,44,0.0,2.0,90,0.00,,,0.00,0.000000,,2013-08-24 11:12:00,
2013-08-24 06:22:00,72.0,69.0,-100.00,NE,44,0.0,2.0,90,0.00,,,0.00,0.000000,,2013-08-24 11:22:00,
2013-08-24 06:32:00,71.0,68.0,-100.00,NE,34,0.0,2.0,90,0.00,,,0.00,0.000000,,2013-08-24 11:32:00,
2013-08-24 06:52:00,71.0,68.0,-100.00,NE,34,0.0,2.0,90,0.00,,,0.00,0.000000,,2013-08-24 11:52:00,
2013-08-24 07:02:00,71.0,68.0,-100.00,NE,34,0.0,2.0,90,0.00,,,0.00,0.000000,,2013-08-24 12:02:00,
2013-08-24 07:12:00,71.0,68.0,-100.00,NE,34,0.0,2.0,90,0.00,,,0.00,0.000000,,2013-08-24 12:12:00,
2013-08-24 07:21:00,71.0,68.0,-100.00,NE,34,0.0,2.0,90,0.00,,,0.00,0.000000,,2013-08-24 12:21:00,
2013-08-24 07:32:00,73.0,70.0,-100.00,NE,45,3.0,5.0,91,0.00,,,0.00,34.000000,,2013-08-24 12:32:00,
2013-08-24 07:52:00,73.0,70.0,-100.00,NE,45,3.0,5.0,91,0.00,,,0.00,34.000000,,2013-08-24 12:52:00,
2013-08-24 08:02:00,73.0,70.0,-100.00,NE,45,3.0,5.0,91,0.00,,,0.00,34.000000,,2013-08-24 13:02:00,
2013-08-24 08:11:00,73.0,70.0,-100.00,NE,45,3.0,5.0,91,0.00,,,0.00,34.000000,,2013-08-24 13:11:00,
2013-08-24 08:22:00,73.0,70.0,-100.00,NE,45,3.0,5.0,91,0.00,,,0.00,34.000000,,2013-08-24 13:22:00,
2013-08-24 08:32:00,78.0,71.0,-100.00,NE,55,3.0,5.0,80,0.00,,,0.00,202.000000,,2013-08-24 13:32:00,
2013-08-24 08:52:00,78.0,71.0,-100.00,NE,55,3.0,5.0,80,0.00,,,0.00,202.000000,,2013-08-24 13:52:00,
2013-08-24 09:02:00,78.0,71.0,-100.00,NE,55,3.0,5.0,80,0.00,,,0.00,202.000000,,2013-08-24 14:02:00,
2013-08-24 09:11:00,78.0,71.0,-100.00,NE,55,3.0,5.0,80,0.00,,,0.00,202.000000,,2013-08-24 14:11:00,
2013-08-24 09:22:00,78.0,71.0,-100.00,NE,55,3.0,5.0,80,0.00,,,0.00,202.000000,,2013-08-24 14:22:00,
2013-08-24 09:32:00,82.0,70.0,-100.00,East,82,6.0,10.0,67,0.00,,,0.00,497.000000,,2013-08-24 14:32:00,
2013-08-24 09:52:00,82.0,70.0,-100.00,East,82,6.0,10.0,67,0.00,,,0.00,497.000000,,2013-08-24 14:52:00,
2013-08-24 10:01:00,82.0,70.0,-100.00,East,82,6.0,10.0,67,0.00,,,0.00,497.000000,,2013-08-24 15:01:00,
2013-08-24 10:12:00,82.0,70.0,-100.00,East,82,6.0,10.0,67,0.00,,,0.00,497.000000,,2013-08-24 15:12:00,
2013-08-24 10:22:00,82.0,70.0,-100.00,East,82,6.0,10.0,67,0.00,,,0.00,497.000000,,2013-08-24 15:22:00,
2013-08-24 10:32:00,84.0,70.0,-100.00,ENE,60,7.0,12.0,63,0.00,,,0.00,580.000000,,2013-08-24 15:32:00,
2013-08-24 10:54:00,84.0,70.0,-100.00,ENE,60,7.0,12.0,63,0.00,,,0.00,580.000000,,2013-08-24 15:54:00,
2013-08-24 11:04:00,84.0,70.0,-100.00,ENE,60,7.0,12.0,63,0.00,,,0.00,580.000000,,2013-08-24 16:04:00,
2013-08-24 11:13:00,84.0,70.0,-100.00,ENE,60,7.0,12.0,63,0.00,,,0.00,580.000000,,2013-08-24 16:13:00,
2013-08-24 11:23:00,84.0,70.0,-100.00,ENE,60,7.0,12.0,63,0.00,,,0.00,580.000000,,2013-08-24 16:23:00,
2013-08-24 11:32:00,87.0,70.0,-100.00,ENE,60,7.0,13.0,57,0.00,,,0.00,777.000000,,2013-08-24 16:32:00,
2013-08-24 11:53:00,87.0,70.0,-100.00,ENE,60,7.0,13.0,57,0.00,,,0.00,777.000000,,2013-08-24 16:53:00,
2013-08-24 12:02:00,87.0,70.0,-100.00,ENE,60,7.0,13.0,57,0.00,,,0.00,777.000000,,2013-08-24 17:02:00,
2013-08-24 12:12:00,87.0,70.0,-100.00,ENE,60,7.0,13.0,57,0.00,,,0.00,777.000000,,2013-08-24 17:12:00,
2013-08-24 12:23:00,87.0,70.0,-100.00,ENE,60,7.0,13.0,57,0.00,,,0.00,777.000000,,2013-08-24 17:23:00,
2013-08-24 12:32:00,88.0,69.0,-100.00,NE,56,7.0,15.0,53,0.00,,,0.00,1022.000000,,2013-08-24 17:32:00,
2013-08-24 12:52:00,88.0,69.0,-100.00,NE,56,7.0,15.0,53,0.00,,,0.00,1022.000000,,2013-08-24 17:52:00,
2013-08-24 13:03:00,88.0,69.0,-100.00,NE,56,7.0,15.0,53,0.00,,,0.00,1022.000000,,2013-08-24 18:03:00,
2013-08-24 13:13:00,88.0,69.0,-100.00,NE,56,7.0,15.0,53,0.00,,,0.00,1022.000000,,2013-08-24 18:13:00,
2013-08-24 13:22:00,88.0,69.0,-100.00,NE,56,7.0,15.0,53,0.00,,,0.00,1022.000000,,2013-08-24 18:22:00,
2013-08-24 13:32:00,90.0,68.0,-100.00,ENE,74,9.0,17.0,48,0.00,,,0.00,858.000000,,2013-08-24 18:32:00,
2013-08-24 13:53:00,90.0,68.0,-100.00,ENE,74,9.0,17.0,48,0.00,,,0.00,858.000000,,2013-08-24 18:53:00,
2013-08-24 14:01:00,90.0,68.0,-100.00,ENE,74,9.0,17.0,48,0.00,,,0.00,858.000000,,2013-08-24 19:01:00,
2013-08-24 14:12:00,90.0,68.0,-100.00,ENE,74,9.0,17.0,48,0.00,,,0.00,858.000000,,2013-08-24 19:12:00,
2013-08-24 14:22:00,90.0,68.0,-100.00,ENE,74,9.0,17.0,48,0.00,,,0.00,858.000000,,2013-08-24 19:22:00,
2013-08-24 14:32:00,91.0,67.0,-100.00,East,99,7.0,15.0,45,0.00,,,0.00,902.000000,,2013-08-24 19:32:00,
2013-08-24 14:52:00,91.0,67.0,-100.00,East,99,7.0,15.0,45,0.00,,,0.00,902.000000,,2013-08-24 19:52:00,
2013-08-24 15:02:00,91.0,67.0,-100.00,East,99,7.0,15.0,45,0.00,,,0.00,902.000000,,2013-08-24 20:02:00,
2013-08-24 15:11:00,91.0,67.0,-100.00,East,99,7.0,15.0,45,0.00,,,0.00,902.000000,,2013-08-24 20:11:00,
2013-08-24 15:22:00,91.0,67.0,-100.00,East,99,7.0,15.0,45,0.00,,,0.00,902.000000,,2013-08-24 20:22:00,
2013-08-24 15:32:00,92.0,68.0,-100.00,East,82,7.0,15.0,45,0.00,,,0.00,667.000000,,2013-08-24 20:32:00,
2013-08-24 15:53:00,92.0,68.0,-100.00,East,82,7.0,15.0,45,0.00,,,0.00,667.000000,,2013-08-24 20:53:00,
2013-08-24 16:02:00,92.0,68.0,-100.00,East,82,7.0,15.0,45,0.00,,,0.00,667.000000,,2013-08-24 21:02:00,
2013-08-24 16:11:00,92.0,68.0,-100.00,East,82,7.0,15.0,45,0.00,,,0.00,667.000000,,2013-08-24 21:11:00,
2013-08-24 16:22:00,92.0,68.0,-100.00,East,82,7.0,15.0,45,0.00,,,0.00,667.000000,,2013-08-24 21:22:00,
2013-08-24 16:32:00,92.0,68.0,-100.00,East,94,6.0,16.0,45,0.00,,,0.00,583.000000,,2013-08-24 21:32:00,
2013-08-24 16:55:00,92.0,68.0,-100.00,East,94,6.0,16.0,45,0.00,,,0.00,583.000000,,2013-08-24 21:55:00,
2013-08-24 17:04:00,92.0,68.0,-100.00,East,94,6.0,16.0,45,0.00,,,0.00,583.000000,,2013-08-24 22:04:00,
2013-08-24 17:14:00,92.0,68.0,-100.00,East,94,6.0,16.0,45,0.00,,,0.00,583.000000,,2013-08-24 22:14:00,
2013-08-24 17:24:00,92.0,68.0,-100.00,East,94,6.0,16.0,45,0.00,,,0.00,583.000000,,2013-08-24 22:24:00,
2013-08-24 17:32:00,89.0,67.0,-100.00,East,95,7.0,12.0,48,0.00,,,0.00,378.000000,,2013-08-24 22:32:00,
2013-08-24 17:53:00,89.0,67.0,-100.00,East,95,7.0,12.0,48,0.00,,,0.00,378.000000,,2013-08-24 22:53:00,
2013-08-24 18:03:00,89.0,67.0,-100.00,East,95,7.0,12.0,48,0.00,,,0.00,378.000000,,2013-08-24 23:03:00,
2013-08-24 18:12:00,89.0,67.0,-100.00,East,95,7.0,12.0,48,0.00,,,0.00,378.000000,,2013-08-24 23:12:00,
2013-08-24 18:22:00,89.0,67.0,-100.00,East,95,7.0,12.0,48,0.00,,,0.00,378.000000,,2013-08-24 23:22:00,
2013-08-24 18:32:00,86.0,68.0,-100.00,ESE,121,5.0,17.0,55,0.00,,,0.00,229.000000,,2013-08-24 23:32:00,
2013-08-24 18:53:00,86.0,68.0,-100.00,ESE,121,5.0,17.0,55,0.00,,,0.00,229.000000,,2013-08-24 23:53:00,
2013-08-24 19:02:00,86.0,68.0,-100.00,ESE,121,5.0,17.0,55,0.00,,,0.00,229.000000,,2013-08-25 00:02:00,
2013-08-24 19:12:00,86.0,68.0,-100.00,ESE,121,5.0,17.0,55,0.00,,,0.00,229.000000,,2013-08-25 00:12:00,
2013-08-24 19:22:00,86.0,68.0,-100.00,ESE,121,5.0,17.0,55,0.00,,,0.00,229.000000,,2013-08-25 00:22:00,
2013-08-24 19:32:00,83.0,68.0,-100.00,East,86,3.0,9.0,61,0.00,,,0.00,104.000000,,2013-08-25 00:32:00,
2013-08-24 19:52:00,83.0,68.0,-100.00,East,86,3.0,9.0,61,0.00,,,0.00,104.000000,,2013-08-25 00:52:00,
2013-08-24 20:01:00,83.0,68.0,-100.00,East,86,3.0,9.0,61,0.00,,,0.00,104.000000,,2013-08-25 01:01:00,
2013-08-24 20:11:00,83.0,68.0,-100.00,East,86,3.0,9.0,61,0.00,,,0.00,104.000000,,2013-08-25 01:11:00,
2013-08-24 20:22:00,83.0,68.0,-100.00,East,86,3.0,9.0,61,0.00,,,0.00,104.000000,,2013-08-25 01:22:00,
2013-08-24 20:32:00,79.0,68.0,-100.00,ENE,74,1.0,6.0,70,0.00,,,0.00,3.000000,,2013-08-25 01:32:00,
2013-08-24 20:52:00,79.0,68.0,-100.00,ENE,74,1.0,6.0,70,0.00,,,0.00,3.000000,,2013-08-25 01:52:00,
2013-08-24 21:02:00,79.0,68.0,-100.00,ENE,74,1.0,6.0,70,0.00,,,0.00,3.000000,,2013-08-25 02:02:00,
2013-08-24 21:11:00,79.0,68.0,-100.00,ENE,74,1.0,6.0,70,0.00,,,0.00,3.000000,,2013-08-25 02:11:00,
2013-08-24 21:22:00,79.0,68.0,-100.00,ENE,74,1.0,6.0,70,0.00,,,0.00,3.000000,,2013-08-25 02:22:00,
2013-08-24 21:32:00,78.0,70.0,-100.00,East,96,2.0,4.0,76,0.00,,,0.00,0.000000,,2013-08-25 02:32:00,
2013-08-24 21:52:00,78.0,70.0,-100.00,East,96,2.0,4.0,76,0.00,,,0.00,0.000000,,2013-08-25 02:52:00,
2013-08-24 22:02:00,78.0,70.0,-100.00,East,96,2.0,4.0,76,0.00,,,0.00,0.000000,,2013-08-25 03:02:00,
2013-08-24 22:11:00,78.0,70.0,-100.00,East,96,2.0,4.0,76,0.00,,,0.00,0.000000,,2013-08-25 03:11:00,
2013-08-24 22:23:00,78.0,70.0,-100.00,East,96,2.0,4.0,76,0.00,,,0.00,0.000000,,2013-08-25 03:23:00,
2013-08-24 22:32:00,78.0,70.0,-100.00,ENE,71,2.0,5.0,76,0.00,,,0.00,0.000000,,2013-08-25 03:32:00,
2013-08-24 22:54:00,78.0,70.0,-100.00,ENE,71,2.0,5.0,76,0.00,,,0.00,0.000000,,2013-08-25 03:54:00,
2013-08-24 23:02:00,-999.0,-99.9,-100.00,ENE,71,2.0,5.0,-999,-99.99,,,-99.99,0.000000,,2013-08-25 04:02:00,
2013-08-24 23:14:00,78.0,70.0,-100.00,ENE,71,2.0,5.0,76,0.00,,,0.00,0.000000,,2013-08-25 04:14:00,
2013-08-24 23:25:00,78.0,70.0,-100.00,ENE,71,2.0,5.0,76,0.00,,,0.00,0.000000,,2013-08-25 04:25:00,
2013-08-24 23:32:00,77.0,70.0,-100.00,East,98,3.0,5.0,79,0.00,,,0.00,0.000000,,2013-08-25 04:32:00,
2013-08-24 23:54:00,77.0,70.0,-100.00,East,98,3.0,5.0,79,0.00,,,0.00,0.000000,,2013-08-25 04:54:00,